Mc Clellan-Palomar Airport
KCRQ : now visible

Airfield :











YOU CAN JOIN US ON...

 
LOGIN :

Register | Disclaimer

   EN    FR    IT 

 









Legend :    VFR   Marginal VFR   IFR   Intensive IFR   Very Intensive IFR
Visi :
Ceiling :
>= 8 km
>= 3000ft
5 to 8 km
1000 to 3000 ft
1500m to 5 km
500 to 1000 ft
800 to 1500m
200 to 500 ft
< 800m
< 200 ft
Symbols :   Thunderstorms  Fog  Heavy snow  Heavy precipitations  Wind > 20 kt







- Airport Elevation : 331 ft


KCRQ - Mc Clellan-Palomar

CURRENT METAR :
  • 212053Z 26007KT 10SM CLR 24/16 A2983 RMK AO2 SLP098 T02440161 58019

EXPIRED METARs :
  • 211953Z VRB04KT 10SM CLR 24/16 A2985 RMK AO2 SLP105 T02440161
  • 211853Z 24008KT 220V280 10SM CLR 23/16 A2987 RMK AO2 SLP113 T02330161

TAF KCRQ
Valid from the 21 at 18:00 until the 22 at 18:00 UTC


211720Z 2118/2218 VRB04KT P6SM SCT010
FM211900 26008KT P6SM SKC
FM220100 VRB04KT P6SM FEW010
FM221100 VRB04KT 4SM BR BKN007
FM221600 VRB04KT P6SM SCT010
No reported NOTAMs for that airfield.



MET'MAP, your aeronautical weather chart ! - Copyright ORBIFLY December 2007 - Disclaimer

ORBIFLY MET'MAP TEAM :

Programming & Development : Alexandra Zaïnal
Concept & Development : Baudouin d'Aumeries
Co-Development & Prog : Marc-Olivier Méhu
Technical & hardware support : Manuel Goepfert

Contact : metmap@orbifly.com




SOURCES & CREDITS :

   NOAA       Earth
Advisory